Time;durP1;ratioP1;P1;durP2;ratioP2;P2;SDS_P1;SDS_P2;PMS_P1;PMS_P2;Temp;Humidity;BMP_temperature;BMP_pressure;BME280_temperature;BME280_humidity;BME280_pressure;Samples;Min_cycle;Max_cycle;Signal;HPM_P1;HPM_P2
2024/01/04 00:00:09;;;;;;;2.47;0.90;;;;;;;;;;698864;28;2159;-63
2024/01/04 00:00:29;;;;;;;3.38;0.80;;;;;;;;;;700061;28;1235;-64
2024/01/04 00:00:50;;;;;;;3.37;0.80;;;;;;;;;;699593;28;825;-65
2024/01/04 00:01:12;;;;;;;2.30;1.00;;;;;;;;;;697540;28;1741;-64
2024/01/04 00:01:33;;;;;;;1.65;1.00;;;;;;;;;;699272;28;4345;-63
2024/01/04 00:01:53;;;;;;;1.60;0.90;;;;;;;;;;700231;28;983;-65
2024/01/04 00:02:13;;;;;;;2.63;1.00;;;;;;;;;;698048;28;1837;-65
2024/01/04 00:02:36;;;;;;;3.83;1.00;;;;;;;;;;700685;28;983;-65
2024/01/04 00:02:56;;;;;;;2.90;1.00;;;;;;;;;;700392;28;984;-64
2024/01/04 00:03:19;;;;;;;1.52;0.82;;;;;;;;;;698128;28;1745;-65
2024/01/04 00:03:40;;;;;;;2.63;0.90;;;;;;;;;;699559;28;956;-65
2024/01/04 00:04:00;;;;;;;3.00;0.90;;;;;;;;;;699349;28;1414;-64
2024/01/04 00:04:21;;;;;;;2.90;0.90;;;;;;;;;;698262;28;4313;-63
2024/01/04 00:04:41;;;;;;;2.43;0.93;;;;;;;;;;700811;28;1274;-64
2024/01/04 00:05:02;;;;;;;5.03;1.10;;;;;;;;;;697655;28;3255;-63
2024/01/04 00:05:23;;;;;;;3.22;1.17;;;;;;;;;;698295;28;912;-64
2024/01/04 00:05:44;;;;;;;1.95;0.93;;;;;;;;;;698436;28;1023;-64
2024/01/04 00:06:04;;;;;;;2.10;0.90;;;;;;;;;;697147;28;1793;-64
2024/01/04 00:06:25;;;;;;;2.83;1.03;;;;;;;;;;700113;28;1269;-64
2024/01/04 00:06:45;;;;;;;2.67;1.00;;;;;;;;;;699333;28;830;-63
2024/01/04 00:07:06;;;;;;;2.80;1.00;;;;;;;;;;699071;28;1557;-64
2024/01/04 00:07:27;;;;;;;3.07;1.30;;;;;;;;;;698011;28;4491;-64
2024/01/04 00:07:48;;;;;;;2.83;1.30;;;;;;;;;;698853;28;807;-65
2024/01/04 00:08:09;;;;;;;2.33;1.00;;;;;;;;;;697024;28;1709;-65
2024/01/04 00:08:30;;;;;;;2.72;1.10;;;;;;;;;;699083;28;936;-65
2024/01/04 00:08:51;;;;;;;2.95;1.10;;;;;;;;;;701044;28;1332;-65
2024/01/04 00:09:12;;;;;;;3.25;1.20;;;;;;;;;;699098;28;1020;-65
2024/01/04 00:09:33;;;;;;;3.88;1.20;;;;;;;;;;699488;28;873;-65
2024/01/04 00:09:54;;;;;;;3.60;1.10;;;;;;;;;;700383;28;1420;-64
2024/01/04 00:10:15;;;;;;;3.85;1.20;;;;;;;;;;698109;28;1896;-65
2024/01/04 00:10:35;;;;;;;4.00;1.10;;;;;;;;;;699321;28;4392;-65
2024/01/04 00:10:56;;;;;;;2.35;1.00;;;;;;;;;;700226;28;987;-65
2024/01/04 00:11:16;;;;;;;2.90;1.10;;;;;;;;;;697888;28;1510;-64
2024/01/04 00:11:36;;;;;;;2.78;1.02;;;;;;;;;;700486;28;1922;-65
2024/01/04 00:11:56;;;;;;;3.37;1.10;;;;;;;;;;700222;28;806;-65
2024/01/04 00:12:17;;;;;;;2.80;1.20;;;;;;;;;;697954;28;1809;-65
2024/01/04 00:12:37;;;;;;;3.40;1.20;;;;;;;;;;699770;28;814;-65
2024/01/04 00:12:58;;;;;;;3.50;1.40;;;;;;;;;;698825;28;794;-65
2024/01/04 00:13:18;;;;;;;3.85;1.13;;;;;;;;;;698576;28;1818;-65
2024/01/04 00:13:38;;;;;;;3.10;1.10;;;;;;;;;;699641;28;4803;-63
2024/01/04 00:14:01;;;;;;;2.90;1.10;;;;;;;;;;700410;28;944;-64
2024/01/04 00:14:22;;;;;;;4.32;1.27;;;;;;;;;;700349;28;902;-65
2024/01/04 00:14:42;;;;;;;3.87;1.20;;;;;;;;;;700889;28;1498;-64
2024/01/04 00:15:05;;;;;;;3.83;1.20;;;;;;;;;;697822;28;2341;-65
2024/01/04 00:15:26;;;;;;;4.63;1.30;;;;;;;;;;700441;28;968;-65
2024/01/04 00:15:46;;;;;;;4.63;1.20;;;;;;;;;;700097;28;898;-64
2024/01/04 00:16:10;;;;;;;3.57;1.27;;;;;;;;;;698538;28;1548;-64
2024/01/04 00:16:33;;;;;;;3.45;1.10;;;;;;;;;;698807;28;4476;-64
2024/01/04 00:16:54;;;;;;;4.63;1.50;;;;;;;;;;699590;28;922;-64
2024/01/04 00:17:14;;;;;;;3.97;1.40;;;;;;;;;;699087;28;1887;-64
2024/01/04 00:17:34;;;;;;;3.90;1.20;;;;;;;;;;700155;28;968;-64
2024/01/04 00:17:54;;;;;;;3.57;1.20;;;;;;;;;;698775;28;1033;-65
2024/01/04 00:18:15;;;;;;;2.87;1.13;;;;;;;;;;699087;28;1957;-65
2024/01/04 00:18:35;;;;;;;3.53;1.20;;;;;;;;;;698994;28;3173;-65
2024/01/04 00:18:55;;;;;;;3.45;1.20;;;;;;;;;;700369;28;1032;-65
2024/01/04 00:19:15;;;;;;;3.27;1.20;;;;;;;;;;697601;28;1450;-65
2024/01/04 00:19:36;;;;;;;2.80;1.20;;;;;;;;;;698368;28;4370;-66
2024/01/04 00:19:56;;;;;;;3.20;1.20;;;;;;;;;;700590;28;1163;-65
2024/01/04 00:20:16;;;;;;;3.50;1.30;;;;;;;;;;698567;28;1798;-64
2024/01/04 00:20:36;;;;;;;3.77;1.33;;;;;;;;;;699720;28;1027;-65
2024/01/04 00:20:58;;;;;;;2.35;1.20;;;;;;;;;;699085;28;944;-65
2024/01/04 00:21:18;;;;;;;2.30;1.17;;;;;;;;;;698938;28;1086;-65
2024/01/04 00:21:38;;;;;;;2.23;1.20;;;;;;;;;;699940;28;825;-65
2024/01/04 00:21:59;;;;;;;4.43;1.40;;;;;;;;;;700341;28;964;-65
2024/01/04 00:22:19;;;;;;;2.73;1.20;;;;;;;;;;699205;28;4330;-64
2024/01/04 00:22:39;;;;;;;2.77;1.20;;;;;;;;;;699000;28;1279;-64
2024/01/04 00:22:59;;;;;;;4.28;1.30;;;;;;;;;;699822;28;1007;-65
2024/01/04 00:23:20;;;;;;;4.97;1.40;;;;;;;;;;698105;28;1132;-65
2024/01/04 00:23:40;;;;;;;4.23;1.40;;;;;;;;;;700526;28;1109;-63
2024/01/04 00:24:01;;;;;;;4.43;1.45;;;;;;;;;;700984;28;798;-64
2024/01/04 00:24:21;;;;;;;4.32;1.38;;;;;;;;;;698171;28;2015;-64
2024/01/04 00:24:41;;;;;;;3.40;1.30;;;;;;;;;;700389;28;1365;-64
2024/01/04 00:25:02;;;;;;;3.50;1.50;;;;;;;;;;698125;28;2366;-65
2024/01/04 00:25:22;;;;;;;3.67;1.40;;;;;;;;;;700820;28;4511;-65
2024/01/04 00:25:42;;;;;;;4.00;1.60;;;;;;;;;;700114;28;794;-65
2024/01/04 00:26:03;;;;;;;3.93;1.50;;;;;;;;;;696335;28;1765;-66
2024/01/04 00:26:23;;;;;;;4.85;1.40;;;;;;;;;;700626;28;1289;-64
2024/01/04 00:26:43;;;;;;;4.97;1.40;;;;;;;;;;699973;28;916;-65
2024/01/04 00:27:03;;;;;;;4.30;1.30;;;;;;;;;;698282;28;2489;-64
2024/01/04 00:27:24;;;;;;;4.07;1.37;;;;;;;;;;699218;28;937;-65
2024/01/04 00:27:44;;;;;;;3.33;1.40;;;;;;;;;;699791;28;770;-65
2024/01/04 00:28:04;;;;;;;3.53;1.50;;;;;;;;;;698568;28;1964;-64
2024/01/04 00:28:25;;;;;;;4.87;1.50;;;;;;;;;;698581;28;4465;-65
2024/01/04 00:28:45;;;;;;;4.47;1.40;;;;;;;;;;696200;28;1483;-65
2024/01/04 00:29:06;;;;;;;3.85;1.50;;;;;;;;;;695731;28;2369;-66
2024/01/04 00:29:27;;;;;;;4.18;1.60;;;;;;;;;;697297;28;954;-65
2024/01/04 00:29:47;;;;;;;4.13;1.63;;;;;;;;;;696972;28;1027;-66
2024/01/04 00:30:08;;;;;;;4.25;1.70;;;;;;;;;;696344;28;4359;-65
2024/01/04 00:30:28;;;;;;;4.40;1.60;;;;;;;;;;699682;28;925;-63
2024/01/04 00:30:48;;;;;;;3.65;1.38;;;;;;;;;;700011;28;926;-64
2024/01/04 00:31:08;;;;;;;3.53;1.40;;;;;;;;;;698047;28;2277;-66
2024/01/04 00:31:29;;;;;;;3.37;1.37;;;;;;;;;;696390;28;4564;-65
2024/01/04 00:31:49;;;;;;;3.53;1.40;;;;;;;;;;696083;28;1984;-65
2024/01/04 00:32:10;;;;;;;3.47;1.40;;;;;;;;;;693553;28;2361;-66
2024/01/04 00:32:30;;;;;;;4.90;1.50;;;;;;;;;;692788;28;1273;-66
2024/01/04 00:32:50;;;;;;;3.80;1.50;;;;;;;;;;692781;28;882;-65
2024/01/04 00:33:11;;;;;;;3.33;1.40;;;;;;;;;;690919;28;1655;-66
2024/01/04 00:33:31;;;;;;;3.90;1.43;;;;;;;;;;697105;28;5471;-66
2024/01/04 00:33:51;;;;;;;2.83;1.40;;;;;;;;;;695803;28;1159;-65
2024/01/04 00:34:12;;;;;;;3.72;1.45;;;;;;;;;;696100;28;2168;-64
2024/01/04 00:34:32;;;;;;;3.57;1.53;;;;;;;;;;696049;28;4535;-65
2024/01/04 00:34:53;;;;;;;3.03;1.30;;;;;;;;;;697505;28;1278;-65
2024/01/04 00:35:13;;;;;;;3.40;1.40;;;;;;;;;;693935;28;1601;-66
2024/01/04 00:35:33;;;;;;;3.80;1.52;;;;;;;;;;697187;28;906;-64
2024/01/04 00:35:53;;;;;;;3.23;1.40;;;;;;;;;;700216;28;806;-66
2024/01/04 00:36:14;;;;;;;2.33;1.20;;;;;;;;;;694960;28;1060;-66
2024/01/04 00:36:34;;;;;;;3.45;1.40;;;;;;;;;;697358;28;1283;-67
2024/01/04 00:36:56;;;;;;;4.43;1.40;;;;;;;;;;697657;28;858;-66
2024/01/04 00:37:17;;;;;;;3.88;1.30;;;;;;;;;;692986;28;1842;-66
2024/01/04 00:37:37;;;;;;;3.37;1.33;;;;;;;;;;693334;28;4302;-66
2024/01/04 00:38:00;;;;;;;3.03;1.30;;;;;;;;;;694716;28;1132;-65
2024/01/04 00:38:20;;;;;;;4.10;1.70;;;;;;;;;;694649;28;1920;-64
2024/01/04 00:38:41;;;;;;;3.90;1.63;;;;;;;;;;696930;28;1400;-64
2024/01/04 00:39:01;;;;;;;3.30;1.33;;;;;;;;;;698470;28;1449;-64
2024/01/04 00:39:24;;;;;;;3.25;1.20;;;;;;;;;;697236;28;1103;-67
2024/01/04 00:39:44;;;;;;;3.22;1.45;;;;;;;;;;697795;28;981;-65
2024/01/04 00:40:05;;;;;;;2.87;1.50;;;;;;;;;;696737;28;1692;-65
2024/01/04 00:40:25;;;;;;;3.05;1.27;;;;;;;;;;697719;28;4359;-65
2024/01/04 00:40:45;;;;;;;3.22;1.25;;;;;;;;;;698408;28;877;-65
2024/01/04 00:41:06;;;;;;;3.57;1.30;;;;;;;;;;697685;28;1566;-65
2024/01/04 00:41:26;;;;;;;4.67;1.40;;;;;;;;;;698063;28;1323;-64
2024/01/04 00:41:47;;;;;;;4.35;1.40;;;;;;;;;;695284;28;1302;-63
2024/01/04 00:42:07;;;;;;;4.22;1.23;;;;;;;;;;691976;28;1930;-64
2024/01/04 00:42:27;;;;;;;3.90;1.40;;;;;;;;;;693272;28;893;-66
2024/01/04 00:42:48;;;;;;;4.40;1.40;;;;;;;;;;689708;28;1575;-68
2024/01/04 00:43:09;;;;;;;3.88;1.50;;;;;;;;;;686144;28;1204;-65
2024/01/04 00:43:30;;;;;;;4.10;1.50;;;;;;;;;;689976;28;4348;-64
2024/01/04 00:43:50;;;;;;;4.30;1.42;;;;;;;;;;693172;28;933;-65
2024/01/04 00:44:10;;;;;;;3.03;1.40;;;;;;;;;;691574;28;1803;-65
2024/01/04 00:44:30;;;;;;;3.30;1.40;;;;;;;;;;693104;28;1247;-65
2024/01/04 00:44:51;;;;;;;4.68;1.45;;;;;;;;;;689928;28;1199;-64
2024/01/04 00:45:11;;;;;;;5.50;1.60;;;;;;;;;;690722;28;1492;-64
2024/01/04 00:45:32;;;;;;;5.50;1.67;;;;;;;;;;692207;28;910;-64
2024/01/04 00:45:52;;;;;;;6.33;1.70;;;;;;;;;;690359;28;1164;-64
2024/01/04 00:46:13;;;;;;;4.13;1.58;;;;;;;;;;691156;28;919;-66
2024/01/04 00:46:33;;;;;;;5.50;1.80;;;;;;;;;;695666;28;4410;-66
2024/01/04 00:46:53;;;;;;;5.00;1.77;;;;;;;;;;699654;28;1140;-66
2024/01/04 00:47:13;;;;;;;5.05;1.77;;;;;;;;;;695581;28;1608;-66
2024/01/04 00:47:34;;;;;;;4.13;1.80;;;;;;;;;;697673;28;1345;-66
2024/01/04 00:47:54;;;;;;;5.32;1.70;;;;;;;;;;698179;28;909;-66
2024/01/04 00:48:14;;;;;;;4.37;1.50;;;;;;;;;;695928;28;1662;-65
2024/01/04 00:48:35;;;;;;;4.83;1.60;;;;;;;;;;694312;28;1516;-64
2024/01/04 00:48:55;;;;;;;5.93;1.90;;;;;;;;;;695136;28;937;-66
2024/01/04 00:49:15;;;;;;;5.43;2.00;;;;;;;;;;693310;28;1849;-66
2024/01/04 00:49:35;;;;;;;5.17;1.70;;;;;;;;;;693925;28;5366;-64
2024/01/04 00:49:56;;;;;;;5.05;1.92;;;;;;;;;;693809;28;1050;-65
2024/01/04 00:50:16;;;;;;;3.80;1.73;;;;;;;;;;696217;28;2006;-64
2024/01/04 00:50:36;;;;;;;4.50;1.93;;;;;;;;;;699488;28;857;-66
2024/01/04 00:50:58;;;;;;;4.65;1.75;;;;;;;;;;698177;28;1289;-65
2024/01/04 00:51:18;;;;;;;5.13;1.80;;;;;;;;;;698353;28;1921;-66
2024/01/04 00:51:38;;;;;;;4.37;1.70;;;;;;;;;;699762;28;1965;-66
2024/01/04 00:51:59;;;;;;;4.15;1.70;;;;;;;;;;700011;28;1131;-66
2024/01/04 00:52:19;;;;;;;4.90;2.00;;;;;;;;;;695998;28;4304;-66
2024/01/04 00:52:39;;;;;;;4.77;1.80;;;;;;;;;;695577;28;913;-66
2024/01/04 00:53:01;;;;;;;4.68;1.80;;;;;;;;;;697415;28;936;-67
2024/01/04 00:53:21;;;;;;;5.03;1.75;;;;;;;;;;696515;28;1693;-67
2024/01/04 00:53:43;;;;;;;7.20;1.90;;;;;;;;;;697561;28;1396;-67
2024/01/04 00:54:04;;;;;;;5.60;1.80;;;;;;;;;;694550;28;1609;-67
2024/01/04 00:54:24;;;;;;;5.67;1.90;;;;;;;;;;696154;28;1211;-66
2024/01/04 00:54:45;;;;;;;6.38;1.92;;;;;;;;;;695522;28;1184;-65
2024/01/04 00:55:06;;;;;;;5.07;1.90;;;;;;;;;;694427;28;1002;-68
2024/01/04 00:55:26;;;;;;;4.82;1.90;;;;;;;;;;691716;28;4661;-67
2024/01/04 00:55:47;;;;;;;4.50;2.00;;;;;;;;;;693022;28;993;-67
2024/01/04 00:56:08;;;;;;;5.43;2.00;;;;;;;;;;691900;28;1952;-67
2024/01/04 00:56:31;;;;;;;6.10;2.17;;;;;;;;;;693177;28;1458;-67
2024/01/04 00:56:52;;;;;;;5.53;1.98;;;;;;;;;;695665;28;1015;-66
2024/01/04 00:57:12;;;;;;;5.23;1.83;;;;;;;;;;694141;28;1437;-68
2024/01/04 00:57:32;;;;;;;5.27;1.93;;;;;;;;;;697146;28;901;-67
2024/01/04 00:57:53;;;;;;;6.05;1.92;;;;;;;;;;696633;28;942;-67
2024/01/04 00:58:13;;;;;;;4.67;1.80;;;;;;;;;;699040;28;1716;-68
2024/01/04 00:58:33;;;;;;;4.93;1.83;;;;;;;;;;698980;28;4284;-67
2024/01/04 00:58:53;;;;;;;4.70;2.08;;;;;;;;;;697011;28;1422;-66
2024/01/04 00:59:13;;;;;;;4.83;2.17;;;;;;;;;;694077;28;1535;-68
2024/01/04 00:59:34;;;;;;;4.65;2.05;;;;;;;;;;691019;28;1226;-67
2024/01/04 00:59:54;;;;;;;4.67;2.20;;;;;;;;;;692187;28;898;-67
2024/01/04 01:00:15;;;;;;;5.23;2.10;;;;;;;;;;689141;28;2350;-67
2024/01/04 01:00:35;;;;;;;5.88;2.05;;;;;;;;;;693541;28;1162;-67
2024/01/04 01:00:57;;;;;;;4.60;2.07;;;;;;;;;;692939;28;1044;-67
2024/01/04 01:01:17;;;;;;;5.25;2.00;;;;;;;;;;694324;28;2248;-67
2024/01/04 01:01:37;;;;;;;5.47;2.00;;;;;;;;;;697825;28;4243;-66
2024/01/04 01:01:58;;;;;;;4.93;1.92;;;;;;;;;;698591;28;897;-66
2024/01/04 01:02:19;;;;;;;5.22;2.05;;;;;;;;;;699126;28;2344;-67
2024/01/04 01:02:39;;;;;;;5.00;2.10;;;;;;;;;;697375;28;1507;-67
2024/01/04 01:03:00;;;;;;;5.47;2.10;;;;;;;;;;698834;28;1004;-66
2024/01/04 01:03:20;;;;;;;3.80;1.80;;;;;;;;;;694863;28;2278;-67
2024/01/04 01:03:40;;;;;;;4.30;2.00;;;;;;;;;;697901;28;929;-66
2024/01/04 01:04:01;;;;;;;5.38;1.98;;;;;;;;;;692546;28;1567;-66
2024/01/04 01:04:21;;;;;;;5.97;2.10;;;;;;;;;;687371;28;4524;-67
2024/01/04 01:04:41;;;;;;;5.87;2.20;;;;;;;;;;688551;28;1564;-66
2024/01/04 01:05:02;;;;;;;4.43;2.10;;;;;;;;;;690046;28;1502;-67
2024/01/04 01:05:22;;;;;;;4.68;2.00;;;;;;;;;;691176;28;1739;-67
2024/01/04 01:05:42;;;;;;;5.93;2.20;;;;;;;;;;693135;28;1265;-67
2024/01/04 01:06:03;;;;;;;6.23;2.10;;;;;;;;;;694290;28;1785;-67
2024/01/04 01:06:23;;;;;;;5.95;2.22;;;;;;;;;;693917;28;2300;-67
2024/01/04 01:06:43;;;;;;;4.20;1.90;;;;;;;;;;696018;28;821;-67
2024/01/04 01:07:04;;;;;;;6.10;1.80;;;;;;;;;;696634;28;1365;-67
2024/01/04 01:07:24;;;;;;;4.68;1.90;;;;;;;;;;695040;28;4541;-66
2024/01/04 01:07:44;;;;;;;4.53;2.00;;;;;;;;;;697655;28;992;-67
2024/01/04 01:08:05;;;;;;;5.30;2.20;;;;;;;;;;699037;28;1003;-66
2024/01/04 01:08:25;;;;;;;5.00;2.00;;;;;;;;;;701387;28;904;-67
2024/01/04 01:08:46;;;;;;;5.68;1.90;;;;;;;;;;698130;28;1155;-67
2024/01/04 01:09:06;;;;;;;5.83;2.00;;;;;;;;;;693883;28;1753;-67
2024/01/04 01:09:27;;;;;;;4.75;2.10;;;;;;;;;;692826;28;1353;-67
2024/01/04 01:09:47;;;;;;;6.00;2.23;;;;;;;;;;693256;28;1287;-67
2024/01/04 01:10:07;;;;;;;6.30;2.27;;;;;;;;;;694581;28;905;-65
2024/01/04 01:10:29;;;;;;;4.97;2.17;;;;;;;;;;696344;28;4619;-65
2024/01/04 01:10:50;;;;;;;5.38;2.35;;;;;;;;;;696270;28;996;-66
2024/01/04 01:11:10;;;;;;;4.97;2.10;;;;;;;;;;695840;28;1467;-66
2024/01/04 01:11:30;;;;;;;5.15;2.20;;;;;;;;;;699160;28;868;-66
2024/01/04 01:11:51;;;;;;;5.30;2.20;;;;;;;;;;701502;28;1914;-66
2024/01/04 01:12:11;;;;;;;7.22;2.40;;;;;;;;;;701506;28;2694;-66
2024/01/04 01:12:32;;;;;;;7.32;2.40;;;;;;;;;;698512;28;822;-66
2024/01/04 01:12:52;;;;;;;6.83;2.30;;;;;;;;;;700207;28;1357;-66
2024/01/04 01:13:19;;;;;;;5.80;2.23;;;;;;;;;;699691;28;1571;-66
2024/01/04 01:13:40;;;;;;;5.53;2.30;;;;;;;;;;697944;28;5035;-66
2024/01/04 01:14:00;;;;;;;5.90;2.40;;;;;;;;;;698691;28;944;-66
2024/01/04 01:14:20;;;;;;;5.00;2.30;;;;;;;;;;697232;28;2176;-67
2024/01/04 01:14:41;;;;;;;4.75;2.00;;;;;;;;;;697739;28;1387;-67
2024/01/04 01:15:01;;;;;;;6.30;2.17;;;;;;;;;;700701;28;3607;-65
2024/01/04 01:15:21;;;;;;;5.87;2.30;;;;;;;;;;699818;28;1896;-67
2024/01/04 01:15:41;;;;;;;4.88;2.30;;;;;;;;;;701088;28;941;-68
2024/01/04 01:16:02;;;;;;;5.10;2.00;;;;;;;;;;698738;28;905;-67
2024/01/04 01:16:22;;;;;;;5.20;2.43;;;;;;;;;;697302;28;4501;-67
2024/01/04 01:16:42;;;;;;;6.22;2.80;;;;;;;;;;699223;28;1343;-68
2024/01/04 01:17:03;;;;;;;6.30;2.20;;;;;;;;;;698680;28;845;-67
2024/01/04 01:17:23;;;;;;;6.20;2.30;;;;;;;;;;696539;28;2345;-66
2024/01/04 01:17:43;;;;;;;5.17;2.37;;;;;;;;;;695677;28;834;-67
2024/01/04 01:18:04;;;;;;;6.17;2.53;;;;;;;;;;695279;28;1035;-68
2024/01/04 01:18:24;;;;;;;7.00;2.50;;;;;;;;;;694292;28;2342;-67
2024/01/04 01:18:44;;;;;;;5.73;2.23;;;;;;;;;;698248;28;944;-66
2024/01/04 01:19:05;;;;;;;5.87;2.20;;;;;;;;;;695212;28;1299;-68
2024/01/04 01:19:25;;;;;;;6.85;2.35;;;;;;;;;;696564;28;4270;-67
2024/01/04 01:19:45;;;;;;;6.47;2.20;;;;;;;;;;699758;28;1000;-65
2024/01/04 01:20:07;;;;;;;6.87;2.20;;;;;;;;;;698134;28;1264;-66
2024/01/04 01:20:27;;;;;;;5.65;2.20;;;;;;;;;;694970;28;1051;-67
2024/01/04 01:20:47;;;;;;;5.97;2.50;;;;;;;;;;697688;28;1235;-66
2024/01/04 01:21:08;;;;;;;5.22;2.33;;;;;;;;;;693265;28;2330;-67
2024/01/04 01:21:28;;;;;;;5.10;2.30;;;;;;;;;;692714;28;1385;-65
2024/01/04 01:21:49;;;;;;;5.53;2.10;;;;;;;;;;692240;28;781;-66
2024/01/04 01:22:09;;;;;;;5.85;2.17;;;;;;;;;;692364;28;1836;-66
2024/01/04 01:22:30;;;;;;;5.68;2.45;;;;;;;;;;693463;28;4295;-65
2024/01/04 01:22:50;;;;;;;6.97;2.60;;;;;;;;;;692884;28;1287;-66
2024/01/04 01:23:10;;;;;;;7.10;2.47;;;;;;;;;;694235;28;2445;-65
2024/01/04 01:23:31;;;;;;;6.63;2.83;;;;;;;;;;694198;28;1432;-65
2024/01/04 01:23:51;;;;;;;5.53;2.67;;;;;;;;;;693173;28;866;-67
2024/01/04 01:24:11;;;;;;;6.10;2.45;;;;;;;;;;689335;28;1785;-66
2024/01/04 01:24:31;;;;;;;6.30;2.30;;;;;;;;;;689706;28;1100;-66
2024/01/04 01:24:52;;;;;;;6.77;2.40;;;;;;;;;;692091;28;1519;-67
2024/01/04 01:25:13;;;;;;;6.22;2.58;;;;;;;;;;691603;28;1839;-66
2024/01/04 01:25:33;;;;;;;4.95;2.25;;;;;;;;;;692522;28;4315;-68
2024/01/04 01:25:53;;;;;;;4.40;2.20;;;;;;;;;;692595;28;1311;-68
2024/01/04 01:26:14;;;;;;;7.30;2.60;;;;;;;;;;694000;28;3916;-66
2024/01/04 01:26:34;;;;;;;6.73;2.30;;;;;;;;;;699896;28;1337;-68
2024/01/04 01:26:54;;;;;;;4.27;2.03;;;;;;;;;;699820;28;913;-67
2024/01/04 01:27:14;;;;;;;4.90;2.20;;;;;;;;;;696748;28;1757;-66
2024/01/04 01:27:35;;;;;;;7.47;2.50;;;;;;;;;;698737;28;937;-65
2024/01/04 01:27:55;;;;;;;6.47;2.17;;;;;;;;;;701192;28;876;-66
2024/01/04 01:28:15;;;;;;;7.17;2.23;;;;;;;;;;699224;28;1841;-67
2024/01/04 01:28:35;;;;;;;5.25;2.20;;;;;;;;;;700339;28;4456;-67
2024/01/04 01:28:56;;;;;;;5.10;2.23;;;;;;;;;;700727;28;944;-66
2024/01/04 01:29:16;;;;;;;5.73;2.20;;;;;;;;;;699568;28;853;-67
2024/01/04 01:29:36;;;;;;;4.88;2.05;;;;;;;;;;700363;28;1075;-65
2024/01/04 01:29:57;;;;;;;6.87;2.30;;;;;;;;;;699114;28;1041;-70
2024/01/04 01:30:17;;;;;;;6.72;2.50;;;;;;;;;;699363;28;1781;-70
2024/01/04 01:30:37;;;;;;;5.07;2.30;;;;;;;;;;699109;28;1267;-69
2024/01/04 01:30:59;;;;;;;6.70;2.07;;;;;;;;;;700448;28;878;-69
2024/01/04 01:31:19;;;;;;;6.28;2.22;;;;;;;;;;695434;28;4536;-69
2024/01/04 01:31:41;;;;;;;7.97;2.47;;;;;;;;;;697485;28;1918;-67
2024/01/04 01:32:02;;;;;;;6.50;2.50;;;;;;;;;;698240;28;902;-68
2024/01/04 01:32:22;;;;;;;5.93;2.45;;;;;;;;;;696561;28;969;-68
2024/01/04 01:32:42;;;;;;;5.90;2.10;;;;;;;;;;699067;28;814;-68
2024/01/04 01:33:02;;;;;;;5.73;2.30;;;;;;;;;;694546;28;1166;-67
2024/01/04 01:33:24;;;;;;;5.78;2.30;;;;;;;;;;694205;28;1534;-66
2024/01/04 01:33:45;;;;;;;5.30;2.10;;;;;;;;;;695391;28;6196;-65
2024/01/04 01:34:05;;;;;;;4.43;2.10;;;;;;;;;;693752;28;892;-67
2024/01/04 01:34:26;;;;;;;4.63;2.20;;;;;;;;;;692661;28;4355;-67
2024/01/04 01:34:46;;;;;;;5.10;2.00;;;;;;;;;;694862;28;1243;-65
2024/01/04 01:35:08;;;;;;;7.38;2.38;;;;;;;;;;698874;28;1364;-67
2024/01/04 01:35:29;;;;;;;6.95;2.40;;;;;;;;;;696848;28;1368;-69
2024/01/04 01:35:49;;;;;;;5.73;2.10;;;;;;;;;;695445;28;1228;-69
2024/01/04 01:36:09;;;;;;;5.70;2.10;;;;;;;;;;691617;28;1767;-68
2024/01/04 01:36:29;;;;;;;6.87;2.33;;;;;;;;;;689944;28;1604;-69
2024/01/04 01:36:50;;;;;;;7.25;2.42;;;;;;;;;;690078;28;996;-67
2024/01/04 01:37:11;;;;;;;4.83;2.40;;;;;;;;;;686183;28;2974;-68
2024/01/04 01:37:32;;;;;;;4.40;2.40;;;;;;;;;;689476;28;4352;-66
2024/01/04 01:37:53;;;;;;;4.18;2.55;;;;;;;;;;693016;28;791;-66
2024/01/04 01:38:13;;;;;;;4.40;2.33;;;;;;;;;;692876;28;1873;-68
2024/01/04 01:38:33;;;;;;;4.90;2.23;;;;;;;;;;697626;28;933;-68
2024/01/04 01:38:55;;;;;;;4.43;2.10;;;;;;;;;;701501;28;1382;-67
2024/01/04 01:39:15;;;;;;;5.10;2.20;;;;;;;;;;699554;28;2198;-70
2024/01/04 01:39:36;;;;;;;4.85;2.25;;;;;;;;;;695003;28;1207;-66
2024/01/04 01:39:56;;;;;;;5.07;2.40;;;;;;;;;;692687;28;1151;-69
2024/01/04 01:40:16;;;;;;;6.25;2.42;;;;;;;;;;691098;28;2334;-66
2024/01/04 01:40:37;;;;;;;6.80;2.30;;;;;;;;;;691132;28;4317;-68
2024/01/04 01:40:58;;;;;;;6.30;2.40;;;;;;;;;;691850;28;1357;-69
2024/01/04 01:41:18;;;;;;;6.53;2.50;;;;;;;;;;692514;28;1832;-67
2024/01/04 01:41:39;;;;;;;6.37;2.33;;;;;;;;;;700758;28;1068;-67
2024/01/04 01:41:59;;;;;;;7.30;2.53;;;;;;;;;;702295;28;949;-68
2024/01/04 01:42:20;;;;;;;7.55;2.35;;;;;;;;;;701216;28;2808;-65
2024/01/04 01:42:45;;;;;;;6.43;2.25;;;;;;;;;;701242;28;961;-66
2024/01/04 01:43:05;;;;;;;6.60;2.40;;;;;;;;;;699486;28;905;-71
2024/01/04 01:43:25;;;;;;;5.53;2.50;;;;;;;;;;698926;28;4300;-64
2024/01/04 01:43:45;;;;;;;5.23;2.40;;;;;;;;;;700754;28;877;-68
2024/01/04 01:44:06;;;;;;;4.65;2.30;;;;;;;;;;698517;28;1064;-66
2024/01/04 01:44:26;;;;;;;6.37;2.40;;;;;;;;;;699839;28;1158;-66
2024/01/04 01:44:47;;;;;;;7.17;2.20;;;;;;;;;;697431;28;1270;-67
2024/01/04 01:45:07;;;;;;;5.53;2.20;;;;;;;;;;695046;28;1369;-68
2024/01/04 01:45:27;;;;;;;5.25;2.50;;;;;;;;;;694833;28;977;-65
2024/01/04 01:45:48;;;;;;;6.23;2.43;;;;;;;;;;692194;28;1181;-68
2024/01/04 01:46:08;;;;;;;6.77;2.43;;;;;;;;;;689015;28;1871;-68
2024/01/04 01:46:29;;;;;;;6.20;2.28;;;;;;;;;;690667;28;4516;-68
2024/01/04 01:46:49;;;;;;;6.80;2.43;;;;;;;;;;692322;28;1361;-67
2024/01/04 01:47:09;;;;;;;5.60;2.47;;;;;;;;;;694438;28;949;-67
2024/01/04 01:47:29;;;;;;;5.70;2.60;;;;;;;;;;695078;28;1148;-69
2024/01/04 01:47:50;;;;;;;5.73;2.33;;;;;;;;;;695224;28;1008;-67
2024/01/04 01:48:12;;;;;;;6.35;2.40;;;;;;;;;;693837;28;1794;-67
2024/01/04 01:48:32;;;;;;;7.30;2.30;;;;;;;;;;693306;28;1217;-66
2024/01/04 01:48:53;;;;;;;6.80;2.50;;;;;;;;;;695611;28;838;-66
2024/01/04 01:49:13;;;;;;;6.40;2.50;;;;;;;;;;694434;28;1550;-67
2024/01/04 01:49:34;;;;;;;5.03;2.47;;;;;;;;;;697357;28;4253;-66
2024/01/04 01:49:54;;;;;;;5.82;2.70;;;;;;;;;;697549;28;874;-69
2024/01/04 01:50:15;;;;;;;6.63;2.60;;;;;;;;;;698102;28;2227;-67
2024/01/04 01:50:36;;;;;;;6.90;2.58;;;;;;;;;;700258;28;999;-69
2024/01/04 01:50:57;;;;;;;6.33;2.40;;;;;;;;;;700459;28;968;-69
2024/01/04 01:51:17;;;;;;;5.40;2.30;;;;;;;;;;696988;28;1736;-68
2024/01/04 01:51:37;;;;;;;6.20;2.63;;;;;;;;;;698436;28;1906;-65
2024/01/04 01:51:58;;;;;;;5.93;2.40;;;;;;;;;;695402;28;1169;-68
2024/01/04 01:52:19;;;;;;;6.17;2.77;;;;;;;;;;690556;28;1004;-68
2024/01/04 01:52:40;;;;;;;5.57;2.63;;;;;;;;;;694955;28;4806;-68
2024/01/04 01:53:00;;;;;;;4.83;2.47;;;;;;;;;;695010;28;917;-68
2024/01/04 01:53:21;;;;;;;5.83;2.57;;;;;;;;;;692258;28;2537;-68
2024/01/04 01:53:41;;;;;;;6.93;2.80;;;;;;;;;;693508;28;1252;-67
2024/01/04 01:54:03;;;;;;;5.13;2.40;;;;;;;;;;697994;28;1290;-70
2024/01/04 01:54:24;;;;;;;5.53;2.30;;;;;;;;;;693521;28;1466;-67
2024/01/04 01:54:46;;;;;;;6.07;2.60;;;;;;;;;;691763;28;1356;-66
2024/01/04 01:55:07;;;;;;;6.50;2.80;;;;;;;;;;695045;28;1522;-68
2024/01/04 01:55:27;;;;;;;5.93;2.53;;;;;;;;;;695953;28;4331;-69
2024/01/04 01:55:49;;;;;;;6.32;2.67;;;;;;;;;;693811;28;1325;-66
2024/01/04 01:56:09;;;;;;;7.30;2.65;;;;;;;;;;690324;28;2068;-66
2024/01/04 01:56:30;;;;;;;6.93;2.60;;;;;;;;;;690816;28;1148;-67
2024/01/04 01:56:51;;;;;;;6.15;2.45;;;;;;;;;;693436;28;922;-67
2024/01/04 01:57:11;;;;;;;6.10;2.50;;;;;;;;;;691989;28;1346;-68
2024/01/04 01:57:33;;;;;;;5.32;2.60;;;;;;;;;;694882;28;787;-69
2024/01/04 01:57:54;;;;;;;5.30;2.53;;;;;;;;;;697756;28;1321;-68
2024/01/04 01:58:14;;;;;;;5.47;2.30;;;;;;;;;;697957;28;1238;-68
2024/01/04 01:58:36;;;;;;;5.55;2.40;;;;;;;;;;698345;28;4562;-68
2024/01/04 01:58:58;;;;;;;5.22;2.45;;;;;;;;;;695965;28;1290;-69
2024/01/04 01:59:18;;;;;;;5.85;2.60;;;;;;;;;;693839;28;1804;-69
2024/01/04 01:59:38;;;;;;;6.32;2.60;;;;;;;;;;697221;28;1394;-69
2024/01/04 01:59:59;;;;;;;6.63;2.37;;;;;;;;;;698217;28;1590;-69
2024/01/04 02:00:20;;;;;;;5.80;2.40;;;;;;;;;;692641;28;2341;-69
2024/01/04 02:00:40;;;;;;;5.47;2.30;;;;;;;;;;696564;28;799;-69
2024/01/04 02:01:01;;;;;;;4.80;2.10;;;;;;;;;;698664;28;869;-68
2024/01/04 02:01:21;;;;;;;3.97;2.20;;;;;;;;;;698424;28;4365;-68
2024/01/04 02:01:42;;;;;;;4.53;2.27;;;;;;;;;;695261;28;924;-68
2024/01/04 02:02:03;;;;;;;4.70;2.20;;;;;;;;;;694767;28;1467;-69
2024/01/04 02:02:23;;;;;;;5.45;2.30;;;;;;;;;;696629;28;1061;-68
2024/01/04 02:02:45;;;;;;;5.60;2.30;;;;;;;;;;697861;28;977;-68
2024/01/04 02:03:08;;;;;;;4.85;2.28;;;;;;;;;;697658;28;878;-69
2024/01/04 02:03:28;;;;;;;5.57;2.40;;;;;;;;;;696748;28;1131;-69
2024/01/04 02:03:49;;;;;;;4.90;2.20;;;;;;;;;;700496;28;914;-69
2024/01/04 02:04:10;;;;;;;4.47;2.13;;;;;;;;;;700721;28;2431;-67
2024/01/04 02:04:30;;;;;;;4.53;2.20;;;;;;;;;;700405;28;4348;-69
2024/01/04 02:04:50;;;;;;;3.80;2.00;;;;;;;;;;701693;28;937;-70
2024/01/04 02:05:11;;;;;;;4.85;2.25;;;;;;;;;;698964;28;2403;-70
2024/01/04 02:05:31;;;;;;;4.60;2.30;;;;;;;;;;699726;28;983;-69
2024/01/04 02:05:51;;;;;;;4.87;2.20;;;;;;;;;;699805;28;904;-71
2024/01/04 02:06:12;;;;;;;6.87;2.50;;;;;;;;;;697599;28;1336;-72
2024/01/04 02:06:32;;;;;;;6.85;2.65;;;;;;;;;;695313;28;1444;-69
2024/01/04 02:06:52;;;;;;;6.63;2.53;;;;;;;;;;692627;28;1211;-69
2024/01/04 02:07:13;;;;;;;6.93;2.50;;;;;;;;;;693657;28;1715;-70
2024/01/04 02:07:33;;;;;;;5.40;2.33;;;;;;;;;;693498;28;4316;-69
2024/01/04 02:07:53;;;;;;;5.40;2.67;;;;;;;;;;695311;28;779;-69